createdAt,value
2023-01-11T00:00:56.863Z,79.30
2023-01-11T00:13:14.466Z,82.70
2023-01-11T00:18:09.349Z,82.30
2023-01-11T00:20:39.390Z,79.50
2023-01-11T00:33:00.053Z,87.30
2023-01-11T00:35:29.555Z,79.90
2023-01-11T00:43:09.820Z,93.00
2023-01-11T00:54:24.035Z,93.10
2023-01-11T01:06:40.551Z,92.50
2023-01-11T01:11:34.699Z,93.20
2023-01-11T01:21:42.514Z,92.80
2023-01-11T01:33:59.302Z,85.10
2023-01-11T01:41:20.930Z,93.10
2023-01-11T01:43:54.944Z,80.10
2023-01-11T01:46:26.384Z,93.50
2023-01-11T01:49:03.238Z,92.90
2023-01-11T01:51:39.856Z,93.30
2023-01-11T01:54:10.110Z,93.30
2023-01-11T01:56:46.057Z,93.10
2023-01-11T01:59:15.573Z,93.30
2023-01-11T02:04:40.409Z,80.20
2023-01-11T02:07:14.037Z,93.20
2023-01-11T02:09:46.111Z,80.50
2023-01-11T02:14:41.680Z,81.60
2023-01-11T02:20:11.585Z,80.00
2023-01-11T02:22:53.345Z,92.90
2023-01-11T02:25:40.323Z,93.00
2023-01-11T02:28:27.275Z,92.90
2023-01-11T02:31:19.709Z,93.50
2023-01-11T02:34:15.101Z,79.70
2023-01-11T02:37:07.657Z,93.20
2023-01-11T02:42:36.779Z,93.10
2023-01-11T02:45:15.138Z,82.30
2023-01-11T02:47:51.041Z,80.80
2023-01-11T02:50:32.872Z,93.30
2023-01-11T02:53:06.892Z,80.00
2023-01-11T02:55:39.578Z,82.00
2023-01-11T02:58:09.854Z,82.00
2023-01-11T03:00:40.914Z,92.90
2023-01-11T03:03:24.825Z,93.50
2023-01-11T03:06:01.507Z,92.90
2023-01-11T03:08:56.303Z,79.90
2023-01-11T03:11:53.357Z,93.30
2023-01-11T03:14:40.932Z,93.20
2023-01-11T03:17:17.433Z,92.90
2023-01-11T03:19:50.286Z,79.80
2023-01-11T03:22:55.622Z,93.40
2023-01-11T03:25:26.687Z,90.90
2023-01-11T03:30:23.600Z,89.40
2023-01-11T03:33:28.299Z,79.20
2023-01-11T03:36:29.426Z,79.00
2023-01-11T03:39:12.509Z,80.90
2023-01-11T03:41:41.554Z,79.90
2023-01-11T03:44:11.123Z,81.20
2023-01-11T03:46:44.440Z,80.80
2023-01-11T03:49:18.320Z,80.70
2023-01-11T03:51:46.661Z,92.70
2023-01-11T03:54:21.658Z,79.00
2023-01-11T03:57:05.569Z,79.30
2023-01-11T04:04:28.006Z,85.10
2023-01-11T04:09:22.364Z,92.60
2023-01-11T04:11:49.294Z,93.00
2023-01-11T04:14:16.186Z,91.90
2023-01-11T04:19:10.213Z,92.50
2023-01-11T04:36:21.320Z,92.00
2023-01-11T04:38:48.163Z,92.00
2023-01-11T04:41:33.563Z,92.00
2023-01-11T04:44:00.500Z,87.70
2023-01-11T04:56:19.975Z,91.50
2023-01-11T05:01:18.803Z,78.40
2023-01-11T05:06:15.122Z,91.80
2023-01-11T05:08:46.671Z,78.00
2023-01-11T05:16:25.905Z,90.90
2023-01-11T05:18:55.013Z,77.40
2023-01-11T05:21:24.912Z,77.40
2023-01-11T05:23:52.772Z,90.90
2023-01-11T05:26:25.225Z,90.90
2023-01-11T05:28:52.766Z,76.40
2023-01-11T05:36:20.353Z,76.40
2023-01-11T05:38:49.414Z,76.50
2023-01-11T05:41:17.310Z,90.90
2023-01-11T05:44:04.306Z,75.90
2023-01-11T05:46:32.149Z,78.20
2023-01-11T05:51:27.858Z,90.20
2023-01-11T05:53:54.690Z,89.40
2023-01-11T05:58:50.005Z,73.40
2023-01-11T06:01:18.667Z,81.60
2023-01-11T06:03:46.524Z,72.70
2023-01-11T06:13:36.290Z,78.10
2023-01-11T06:16:10.401Z,88.20
2023-01-11T06:18:39.244Z,71.50
2023-01-11T06:21:07.290Z,70.70
2023-01-11T06:23:36.829Z,86.20
2023-01-11T06:26:06.059Z,71.50
2023-01-11T06:31:00.832Z,84.30
2023-01-11T06:33:29.083Z,83.20
2023-01-11T06:38:25.053Z,69.50
2023-01-11T06:41:00.515Z,69.20
2023-01-11T06:43:28.741Z,68.40
2023-01-11T06:48:23.784Z,68.00
2023-01-11T06:50:52.601Z,77.40
2023-01-11T06:55:51.151Z,68.90
2023-01-11T07:03:13.462Z,85.00
2023-01-11T07:17:58.849Z,68.50
2023-01-11T07:20:26.725Z,68.60
2023-01-11T07:22:58.257Z,83.70
2023-01-11T07:27:57.832Z,66.90
2023-01-11T07:43:14.625Z,67.30
2023-01-11T07:45:48.457Z,67.10
2023-01-11T07:48:20.793Z,69.30
2023-01-11T07:58:12.591Z,74.60
2023-01-11T08:00:43.501Z,68.90
2023-01-11T08:05:39.259Z,84.50
2023-01-11T08:13:19.934Z,79.90
2023-01-11T08:23:10.380Z,70.10
2023-01-11T08:25:38.080Z,85.20
2023-01-11T08:28:07.418Z,69.20
2023-01-11T08:33:02.620Z,68.40
2023-01-11T08:42:57.177Z,67.20
2023-01-11T08:50:22.313Z,84.10
2023-01-11T08:52:51.264Z,68.20
2023-01-11T09:00:14.234Z,68.70
2023-01-11T09:05:08.948Z,66.30
2023-01-11T09:42:15.319Z,61.10
2023-01-11T09:45:13.712Z,64.50
2023-01-11T09:48:00.419Z,61.60
2023-01-11T09:50:31.062Z,60.80
2023-01-11T09:53:09.240Z,61.30
2023-01-11T09:55:58.497Z,57.50
2023-01-11T09:58:54.010Z,73.50
2023-01-11T10:01:50.040Z,64.30
2023-01-11T10:04:55.385Z,54.40
2023-01-11T10:18:38.955Z,64.70
2023-01-11T10:22:18.117Z,48.30
2023-01-11T10:25:11.574Z,45.80
2023-01-11T10:27:58.990Z,48.90
2023-01-11T10:30:32.496Z,45.80
2023-01-11T10:33:30.132Z,46.40
2023-01-11T10:36:18.114Z,42.20
2023-01-11T10:38:56.407Z,43.80
2023-01-11T10:41:37.585Z,47.10
2023-01-11T10:44:10.596Z,41.00
2023-01-11T10:46:46.005Z,56.10
2023-01-11T10:49:47.708Z,39.10
2023-01-11T10:52:39.017Z,38.20
2023-01-11T10:55:21.176Z,38.20
2023-01-11T10:58:11.946Z,40.50
2023-01-11T11:00:48.691Z,53.70
2023-01-11T11:03:34.029Z,33.30
2023-01-11T11:06:21.301Z,52.40
2023-01-11T11:09:34.219Z,35.90
2023-01-11T11:12:10.138Z,48.60
2023-01-11T11:15:15.657Z,32.90
2023-01-11T11:17:49.175Z,37.80
2023-01-11T11:20:25.309Z,50.60
2023-01-11T11:22:54.119Z,34.30
2023-01-11T11:25:37.551Z,35.10
2023-01-11T11:28:07.548Z,35.90
2023-01-11T11:30:42.235Z,36.70
2023-01-11T11:33:32.227Z,36.90
2023-01-11T11:38:31.518Z,41.50
2023-01-11T11:41:04.589Z,41.40
2023-01-11T11:43:33.312Z,57.60
2023-01-11T11:46:01.399Z,43.00
2023-01-11T11:48:31.353Z,43.20
2023-01-11T11:51:00.915Z,44.10
2023-01-11T11:53:36.222Z,43.70
2023-01-11T11:56:08.451Z,60.80
2023-01-11T12:03:34.367Z,64.20
2023-01-11T12:06:04.204Z,50.30
2023-01-11T12:08:34.102Z,49.30
2023-01-11T12:11:04.626Z,49.20
2023-01-11T12:13:40.263Z,49.40
2023-01-11T12:16:20.814Z,49.20
2023-01-11T12:21:25.043Z,45.00
2023-01-11T12:24:17.255Z,43.10
2023-01-11T12:27:12.904Z,58.60
2023-01-11T12:30:26.919Z,41.60
2023-01-11T12:33:20.495Z,34.30
2023-01-11T12:36:13.295Z,35.50
2023-01-11T12:38:53.776Z,44.80
2023-01-11T12:41:43.592Z,38.40
2023-01-11T12:49:28.481Z,41.40
2023-01-11T12:54:31.633Z,39.80
2023-01-11T12:59:56.078Z,37.40
2023-01-11T13:02:52.929Z,57.40
2023-01-11T13:05:38.112Z,35.70
2023-01-11T13:08:30.786Z,33.90
2023-01-11T13:11:08.557Z,46.20
2023-01-11T13:14:02.518Z,44.50
2023-01-11T13:17:01.052Z,28.40
2023-01-11T13:19:58.252Z,45.90
2023-01-11T13:22:30.409Z,33.10
2023-01-11T13:24:59.657Z,34.10
2023-01-11T13:27:29.058Z,35.90
2023-01-11T13:29:59.442Z,35.00
2023-01-11T13:32:37.687Z,52.10
2023-01-11T13:35:19.212Z,33.30
2023-01-11T13:38:17.947Z,50.30
2023-01-11T13:40:53.251Z,37.80
2023-01-11T13:43:35.531Z,41.90
2023-01-11T13:46:17.623Z,30.60
2023-01-11T13:48:56.307Z,47.60
2023-01-11T13:51:32.919Z,28.80
2023-01-11T13:54:16.307Z,46.30
2023-01-11T13:56:51.911Z,29.50
2023-01-11T13:59:31.068Z,28.20
2023-01-11T14:02:03.923Z,28.60
2023-01-11T14:04:36.807Z,46.90
2023-01-11T14:07:37.722Z,46.30
2023-01-11T14:10:20.691Z,31.00
2023-01-11T14:13:06.380Z,43.30
2023-01-11T14:15:48.709Z,35.10
2023-01-11T14:18:18.302Z,34.20
2023-01-11T14:23:21.617Z,31.40
2023-01-11T14:26:26.632Z,48.90
2023-01-11T14:29:06.860Z,37.40
2023-01-11T14:31:55.488Z,33.90
2023-01-11T14:34:44.014Z,36.30
2023-01-11T14:37:30.287Z,36.70
2023-01-11T14:40:24.398Z,38.90
2023-01-11T14:43:12.738Z,56.50
2023-01-11T14:45:55.352Z,38.60
2023-01-11T14:48:34.404Z,52.80
2023-01-11T14:51:33.574Z,40.40
2023-01-11T14:54:27.173Z,40.90
2023-01-11T14:56:56.381Z,44.50
2023-01-11T14:59:36.812Z,43.10
2023-01-11T15:04:38.701Z,62.20
2023-01-11T15:07:31.304Z,44.50
2023-01-11T15:10:00.500Z,46.30
2023-01-11T15:12:39.317Z,62.90
2023-01-11T15:15:21.174Z,43.80
2023-01-11T15:18:15.006Z,46.10
2023-01-11T15:21:04.670Z,46.50
2023-01-11T15:23:38.383Z,46.50
2023-01-11T15:26:09.366Z,48.90
2023-01-11T15:28:43.892Z,59.50
2023-01-11T15:31:29.409Z,45.80
2023-01-11T15:34:04.349Z,48.10
2023-01-11T15:37:02.286Z,64.30
2023-01-11T15:39:44.640Z,46.90
2023-01-11T15:42:17.723Z,47.50
2023-01-11T15:45:18.876Z,65.40
2023-01-11T15:48:00.876Z,49.50
2023-01-11T15:50:44.223Z,48.60
2023-01-11T15:53:31.965Z,48.00
2023-01-11T15:59:03.601Z,48.70
2023-01-11T16:04:21.566Z,67.40
2023-01-11T16:09:31.899Z,64.00
2023-01-11T16:12:22.681Z,48.90
2023-01-11T16:17:20.980Z,50.70
2023-01-11T16:19:52.954Z,66.60
2023-01-11T16:22:25.173Z,50.60
2023-01-11T16:25:01.482Z,48.50
2023-01-11T16:27:33.079Z,50.20
2023-01-11T16:32:32.775Z,50.30
2023-01-11T16:35:03.747Z,67.20
2023-01-11T16:37:36.383Z,48.70
2023-01-11T16:40:21.443Z,48.90
2023-01-11T16:42:58.479Z,49.60
2023-01-11T16:45:43.911Z,51.80
2023-01-11T16:53:11.188Z,52.10
2023-01-11T16:55:40.571Z,52.40
2023-01-11T16:58:31.126Z,52.10
2023-01-11T17:01:15.151Z,49.90
2023-01-11T17:03:50.802Z,68.50
2023-01-11T17:08:54.668Z,50.40
2023-01-11T17:11:37.039Z,69.00
2023-01-11T17:14:25.877Z,50.20
2023-01-11T17:16:59.083Z,52.40
2023-01-11T17:19:32.047Z,50.40
2023-01-11T17:22:06.585Z,49.70
2023-01-11T17:24:58.777Z,49.60
2023-01-11T17:27:33.389Z,51.00
2023-01-11T17:30:02.071Z,52.20
2023-01-11T17:32:42.944Z,51.90
2023-01-11T17:35:24.636Z,49.90
2023-01-11T17:37:58.949Z,50.00
2023-01-11T17:40:32.600Z,50.10
2023-01-11T17:43:32.023Z,50.00
2023-01-11T17:46:02.551Z,51.00
2023-01-11T17:51:03.021Z,50.00
2023-01-11T17:53:37.432Z,50.20
2023-01-11T17:56:07.390Z,63.20
2023-01-11T17:58:36.081Z,51.90
2023-01-11T18:03:38.695Z,52.80
2023-01-11T18:06:28.958Z,68.60
2023-01-11T18:08:58.141Z,53.10
2023-01-11T18:11:38.567Z,51.10
2023-01-11T18:14:13.914Z,53.50
2023-01-11T18:16:55.992Z,69.00
2023-01-11T18:19:31.480Z,54.70
2023-01-11T18:24:31.138Z,56.80
2023-01-11T18:27:23.249Z,56.30
2023-01-11T18:29:51.092Z,56.70
2023-01-11T18:34:48.549Z,58.90
2023-01-11T18:37:15.765Z,74.70
2023-01-11T18:42:16.677Z,58.70
2023-01-11T18:44:46.642Z,59.40
2023-01-11T19:02:17.261Z,58.60
2023-01-11T19:04:45.465Z,57.60
2023-01-11T19:07:13.354Z,57.20
2023-01-11T19:12:08.288Z,57.10
2023-01-11T19:31:53.053Z,60.20
2023-01-11T19:36:49.529Z,61.30
2023-01-11T19:39:16.643Z,78.30
2023-01-11T19:44:33.762Z,62.00
2023-01-11T19:52:14.019Z,81.50
2023-01-11T19:54:42.778Z,66.20
2023-01-11T19:57:11.425Z,66.50
2023-01-11T20:11:55.830Z,84.30
2023-01-11T20:24:13.360Z,84.80
2023-01-11T20:26:41.250Z,70.80
2023-01-11T20:34:12.660Z,68.70
2023-01-11T20:39:07.247Z,79.40
2023-01-11T20:44:23.906Z,79.70
2023-01-11T20:46:52.761Z,69.70
2023-01-11T20:49:22.602Z,85.50
2023-01-11T20:54:18.419Z,68.50
2023-01-11T20:59:19.711Z,69.20
2023-01-11T21:01:47.808Z,68.80
2023-01-11T21:06:44.664Z,79.70
2023-01-11T21:09:15.069Z,79.00
2023-01-11T21:14:12.048Z,82.10
2023-01-11T21:16:43.095Z,84.50
2023-01-11T21:19:14.693Z,84.90
2023-01-11T21:21:42.257Z,67.80
2023-01-11T21:24:12.502Z,69.00
2023-01-11T21:26:40.243Z,81.10
2023-01-11T21:31:36.106Z,77.90
2023-01-11T21:36:31.596Z,71.40
2023-01-11T21:38:59.494Z,67.90
2023-01-11T21:41:47.563Z,68.20
2023-01-11T21:44:15.912Z,83.80
2023-01-11T21:49:11.672Z,68.10
2023-01-11T21:51:39.791Z,67.80
2023-01-11T21:54:10.462Z,82.70
2023-01-11T21:59:05.137Z,82.30
2023-01-11T22:16:17.723Z,65.80
2023-01-11T22:18:45.705Z,65.30
2023-01-11T22:21:18.088Z,63.20
2023-01-11T22:23:46.951Z,65.20
2023-01-11T22:26:16.672Z,65.10
2023-01-11T22:29:03.028Z,63.70
2023-01-11T22:31:30.966Z,64.40
2023-01-11T22:36:27.500Z,64.60
2023-01-11T22:46:22.520Z,64.20
2023-01-11T22:48:50.478Z,80.50
2023-01-11T22:51:19.438Z,64.10
2023-01-11T22:53:47.938Z,64.20
2023-01-11T22:56:20.511Z,64.30
2023-01-11T23:01:25.297Z,62.70
2023-01-11T23:06:24.591Z,64.70
2023-01-11T23:11:41.834Z,80.10
2023-01-11T23:14:12.319Z,64.50
2023-01-11T23:19:08.685Z,64.50
2023-01-11T23:21:36.152Z,81.10
2023-01-11T23:24:03.765Z,80.70
2023-01-11T23:28:58.507Z,76.40
2023-01-11T23:31:26.469Z,65.00
2023-01-11T23:33:56.459Z,70.50
2023-01-11T23:36:26.587Z,64.60
2023-01-11T23:41:40.578Z,76.40
2023-01-11T23:44:09.391Z,65.00
2023-01-11T23:46:56.119Z,64.80
2023-01-11T23:59:14.918Z,64.60
